Flight Track Log - Related Links

Times and Time Zones

All times are in EDT time to prevent confusion due to time zone crossing. See the UAL5887 flight status page for this flight to view local times or setup timezone preferences in your user account.

Time Position Orientation Groundspeed Altitude Reporting Facility
EDT Latitude Longitude Course Direction KTS MPH feet Rate Location/Type
Sun 10:14:17 AM 41.9333 -87.9167 81° East 170 196 2,700  Level Chicago TRACON
Sun 10:16:45 AM 41.9567 -87.7081 81° East 259 298 7,400 1,952 Climbing Chicago Center
Sun 10:17:46 AM 41.9975 -87.6214 58° Northeast 275 316 9,500 2,049 Climbing Chicago Center
Sun 10:18:48 AM 42.0428 -87.5314 56° Northeast 287 330 11,600 1,597 Climbing Chicago Center
Sun 10:19:50 AM 42.0919 -87.4367 55° Northeast 301 346 12,800 1,073 Climbing Chicago Center
Sun 10:20:51 AM 42.1222 -87.3122 72° East 352 405 13,800 1,073 Climbing Chicago Center
Sun 10:21:53 AM 42.1350 -87.1783 83° East 363 418 15,000 1,258 Climbing Chicago Center
Sun 10:22:55 AM 42.1464 -87.0422 84° East 366 421 16,400 1,415 Climbing Chicago Center
Sun 10:23:56 AM 42.1597 -86.8764 84° East 371 427 17,900 1,268 Climbing Chicago Center
Sun 10:24:58 AM 42.1719 -86.7358 83° East 376 433 19,000 968 Climbing Chicago Center
Sun 10:26:00 AM 42.1828 -86.6117 83° East 388 447 19,900 1,024 Climbing Chicago Center
Sun 10:27:01 AM 42.1964 -86.4350 84° East 394 453 21,100 1,122 Climbing Chicago Center
Sun 10:28:03 AM 42.2089 -86.2847 84° East 400 460 22,200 1,073 Climbing Chicago Center
Sun 10:29:04 AM 42.2206 -86.1333 84° East 405 466 23,300 1,171 Climbing Chicago Center
Sun 10:30:06 AM 42.2319 -85.9822 84° East 404 465 24,600 823 Climbing Chicago Center
Sun 10:31:08 AM 42.2444 -85.8139 84° East 406 467 25,000 195 Climbing Chicago Center
Sun 10:32:09 AM 42.2558 -85.6539 84° East 419 482 25,000  Level Chicago Center
Sun 10:33:11 AM 42.2683 -85.4889 84° East 436 502 25,000  Level Chicago Center
Sun 10:34:13 AM 42.2797 -85.3203 85° East 447 514 25,000  Level Chicago Center
Sun 10:35:14 AM 42.2922 -85.1525 84° East 451 519 25,000  Level Chicago Center
Sun 10:36:16 AM 42.3000 -84.9842 86° East 452 520 25,000  Level Chicago Center
Sun 10:37:18 AM 42.2958 -84.8192 92° East 446 513 25,000  Level Chicago Center
Sun 10:38:19 AM 42.3347 -84.6225 75° East 451 519 25,000  Level Chicago Center
Sun 10:39:21 AM 42.3717 -84.4611 73° East 450 518 25,000  Level Chicago Center
Sun 10:40:22 AM 42.4019 -84.3064 75° East 446 513 25,000  Level Cleveland Center
Sun 10:41:22 AM 42.4383 -84.1425 73° East 451 519 25,000  Level Cleveland Center
Sun 10:42:22 AM 42.4725 -83.9811 74° East 451 519 25,000  Level Cleveland Center
Sun 10:43:22 AM 42.5086 -83.8139 74° East 451 519 25,000  Level Cleveland Center
Sun 10:44:22 AM 42.5422 -83.6494 74° East 451 519 25,000  Level Cleveland Center
Sun 10:45:22 AM 42.5778 -83.4847 74° East 451 519 25,000  Level Cleveland Center
Sun 10:46:22 AM 42.6133 -83.3142 74° East 451 519 25,000  Level Cleveland Center
Sun 10:47:22 AM 42.6464 -83.1492 75° East 451 519 25,000  Level Cleveland Center
Sun 10:48:22 AM 42.6811 -82.9783 74° East 456 525 25,000  Level Cleveland Center
Sun 10:49:22 AM 42.7158 -82.8072 75° East 456 525 25,000  Level Cleveland Center
Sun 10:50:22 AM 42.7503 -82.6417 74° East 456 525 25,000  Level Cleveland Center
Sun 10:51:21 AM 42.7844 -82.4672 75° East 456 525 25,000  Level Cleveland Center
Sun 10:52:22 AM 42.8164 -82.2983 75° East 456 525 25,000  Level Cleveland Center
Sun 10:53:22 AM 42.8522 -82.1239 74° East 456 525 25,000  Level Cleveland Center
Sun 10:55:05 AM 42.9000 -81.8000 79° East 480 552 25,000  Level Toronto Center
Sun 10:56:05 AM 42.9333 -81.6333 75° East 480 552 25,000  Level Toronto Center
Sun 10:57:05 AM 42.9667 -81.4500 76° East 480 552 25,000  Level Toronto Center
Sun 10:58:05 AM 43.0000 -81.2667 76° East 480 552 25,000  Level Toronto Center
Sun 10:59:05 AM 43.0333 -81.1000 75° East 480 552 25,000  Level Toronto Center
Sun 11:00:05 AM 43.1000 -80.9333 61° Northeast 480 552 25,000  Level Toronto Center
Sun 11:01:05 AM 43.1833 -80.7833 53° Northeast 480 552 25,000  Level Toronto Center
Sun 11:02:05 AM 43.2500 -80.6167 61° Northeast 480 552 25,000  Level Toronto Center
Sun 11:03:05 AM 43.3167 -80.4500 61° Northeast 470 541 25,000  Level Toronto Center
Sun 11:04:05 AM 43.3667 -80.3167 63° Northeast 470 541 25,000  Level Toronto Center
Sun 11:05:05 AM 43.4333 -80.1667 58° Northeast 470 541 25,000  Level Toronto Center
Sun 11:06:05 AM 43.5000 -80.0000 61° Northeast 470 541 25,000  Level Toronto Center
Sun 11:07:05 AM 43.5500 -79.8333 67° East 460 529 25,000  Level Toronto Center
Sun 11:08:05 AM 43.6167 -79.7000 55° Northeast 460 529 25,000  Level Toronto Center
Sun 11:09:05 AM 43.6667 -79.5167 69° East 470 541 25,000  Level Toronto Center
Sun 11:10:05 AM 43.7167 -79.3500 67° East 470 541 25,000  Level Toronto Center
Sun 11:11:05 AM 43.7667 -79.2000 65° Northeast 470 541 25,000  Level Toronto Center
Sun 11:12:05 AM 43.8167 -79.0333 67° East 470 541 25,000  Level Toronto Center
Sun 11:13:05 AM 43.8833 -78.8667 61° Northeast 470 541 25,000  Level Toronto Center
Sun 11:14:05 AM 43.9500 -78.7000 61° Northeast 470 541 25,000  Level Toronto Center
Sun 11:15:05 AM 44.0000 -78.5667 62° Northeast 470 541 25,000  Level Toronto Center
Sun 11:16:05 AM 44.0667 -78.4000 61° Northeast 470 541 25,000  Level Toronto Center
Sun 11:17:05 AM 44.1500 -78.2667 49° Northeast 470 541 25,000  Level Toronto Center
Sun 11:18:05 AM 44.2333 -78.1167 52° Northeast 470 541 25,000 -300 Level Toronto Center
Sun 11:19:05 AM 44.3000 -77.9500 61° Northeast 470 541 24,400 -500 Descending Toronto Center
Sun 11:20:05 AM 44.3667 -77.7833 61° Northeast 470 541 24,000 -261 Descending Toronto Center
Sun 11:20:37 AM 44.3833 -77.7167 71° East 460 529 24,000  Level Montreal Center
Sun 11:21:37 AM 44.4500 -77.5833 55° Northeast 460 529 24,000  Level Montreal Center
Sun 11:22:05 AM 44.4667 -77.4667 79° East 460 529 24,000  Level Toronto Center
Sun 11:23:05 AM 44.5167 -77.3000 67° East 470 541 24,000 -652 Level Toronto Center
Sun 11:23:37 AM 44.5500 -77.2333 55° Northeast 460 529 23,000 -2,348 Descending Montreal Center
Sun 11:24:37 AM 44.6000 -77.0667 67° East 450 518 20,400 -2,450 Descending Montreal Center
Sun 11:25:37 AM 44.6500 -76.9333 62° Northeast 430 495 18,100 -2,300 Descending Montreal Center
Sun 11:26:37 AM 44.7167 -76.8000 55° Northeast 420 483 15,800 -2,400 Descending Montreal Center
Sun 11:27:37 AM 44.7833 -76.6833 51° Northeast 410 472 13,300 -2,659 Descending Montreal Center
Sun 11:28:05 AM 44.8000 -76.6000 74° East 400 460 11,900 -1,705 Descending Toronto Center
Sun 11:29:05 AM 44.8667 -76.4833 51° Northeast 350 403 10,800 -1,304 Descending Toronto Center
Sun 11:29:37 AM 44.8833 -76.4667 35° Northeast 310 357 9,900 -1,700 Descending Montreal Center
Sun 11:30:05 AM 44.9167 -76.3833 61° Northeast 290 334 9,100 -1,500 Descending Toronto Center
Sun 11:30:37 AM 44.9333 -76.3667 35° Northeast 280 322 8,400 -1,304 Descending Montreal Center
Sun 11:31:37 AM 44.9833 -76.3000 43° Northeast 280 322 7,100 -1,200 Descending Montreal Center
Sun 11:32:37 AM 45.0333 -76.2000 55° Northeast 280 322 6,000 -1,050 Descending Montreal Center
Sun 11:33:37 AM 45.0667 -76.1167 60° Northeast 270 311 5,000 -1,000 Descending Montreal Center
Sun 11:34:37 AM 45.1167 -76.0333 50° Northeast 270 311 4,000 -950 Descending Montreal Center
Sun 11:35:37 AM 45.1667 -75.9667 43° Northeast 250 288 3,100 -500 Descending Montreal Center
Sun 11:36:37 AM 45.2000 -75.8667 65° Northeast 220 253 3,000 -150 Descending Montreal Center
Sun 11:37:37 AM 45.2333 -75.8000 55° Northeast 220 253 2,800 -650 Descending Montreal Center
Sun 11:38:37 AM 45.2667 -75.7500 47° Northeast 190 219 1,700 -950 Descending Montreal Center
Sun 11:39:37 AM 45.2833 -75.7000 65° Northeast 130 150 900 -650 Descending Montreal Center
Sun 11:40:37 AM 45.3000 -75.6667 55° Northeast 130 150 400 -500 Descending Montreal Center

Login

Don't have an account? Register now (free) for customized features, flight alerts, and more!